sensor_id;sensor_type;location;lat;lon;timestamp;pressure;altitude;pressure_sealevel;temperature;humidity
47430;BME280;33181;49.246;7.372;2022-08-02T00:01:26;99075.88;;;20.99;66.69
47430;BME280;33181;49.246;7.372;2022-08-02T00:03:51;99078.28;;;21.09;66.28
47430;BME280;33181;49.246;7.372;2022-08-02T00:06:17;99081.22;;;21.14;65.87
47430;BME280;33181;49.246;7.372;2022-08-02T00:08:43;99074.34;;;21.19;65.79
47430;BME280;33181;49.246;7.372;2022-08-02T00:11:09;99071.91;;;21.24;65.61
47430;BME280;33181;49.246;7.372;2022-08-02T00:13:35;99076.44;;;21.24;65.59
47430;BME280;33181;49.246;7.372;2022-08-02T00:16:01;99070.28;;;21.23;65.14
47430;BME280;33181;49.246;7.372;2022-08-02T00:18:27;99063.81;;;21.18;65.55
47430;BME280;33181;49.246;7.372;2022-08-02T00:20:53;99070.19;;;21.17;65.81
47430;BME280;33181;49.246;7.372;2022-08-02T00:23:19;99068.16;;;21.04;66.46
47430;BME280;33181;49.246;7.372;2022-08-02T00:25:45;99068.13;;;20.89;66.59
47430;BME280;33181;49.246;7.372;2022-08-02T00:28:11;99065.88;;;20.63;67.72
47430;BME280;33181;49.246;7.372;2022-08-02T00:30:37;99059.97;;;20.53;68.00
47430;BME280;33181;49.246;7.372;2022-08-02T00:33:03;99051.16;;;20.44;68.27
47430;BME280;33181;49.246;7.372;2022-08-02T00:35:34;99055.22;;;20.40;68.52
47430;BME280;33181;49.246;7.372;2022-08-02T00:37:59;99057.31;;;20.45;68.39
47430;BME280;33181;49.246;7.372;2022-08-02T00:40:26;99056.13;;;20.47;68.19
47430;BME280;33181;49.246;7.372;2022-08-02T00:43:07;99056.31;;;20.46;67.99
47430;BME280;33181;49.246;7.372;2022-08-02T00:45:37;99057.94;;;20.55;67.72
47430;BME280;33181;49.246;7.372;2022-08-02T00:48:05;99054.72;;;20.59;67.46
47430;BME280;33181;49.246;7.372;2022-08-02T00:50:32;99057.41;;;20.59;67.43
47430;BME280;33181;49.246;7.372;2022-08-02T00:52:58;99055.91;;;20.57;67.63
47430;BME280;33181;49.246;7.372;2022-08-02T00:55:25;99052.44;;;20.48;68.01
47430;BME280;33181;49.246;7.372;2022-08-02T00:57:52;99054.28;;;20.48;67.65
47430;BME280;33181;49.246;7.372;2022-08-02T01:00:18;99054.63;;;20.53;67.62
47430;BME280;33181;49.246;7.372;2022-08-02T01:02:44;99054.72;;;20.59;67.28
47430;BME280;33181;49.246;7.372;2022-08-02T01:05:10;99052.22;;;20.58;67.33
47430;BME280;33181;49.246;7.372;2022-08-02T01:07:36;99064.28;;;20.54;67.39
47430;BME280;33181;49.246;7.372;2022-08-02T01:10:04;99056.59;;;20.51;67.29
47430;BME280;33181;49.246;7.372;2022-08-02T01:12:30;99055.72;;;20.35;67.92
47430;BME280;33181;49.246;7.372;2022-08-02T01:15:00;99064.69;;;20.20;68.38
47430;BME280;33181;49.246;7.372;2022-08-02T01:20:50;99063.56;;;20.14;68.47
47430;BME280;33181;49.246;7.372;2022-08-02T01:23:50;99064.25;;;20.08;68.48
47430;BME280;33181;49.246;7.372;2022-08-02T01:31:51;99066.41;;;19.89;69.25
47430;BME280;33181;49.246;7.372;2022-08-02T01:34:29;99069.56;;;19.85;69.49
47430;BME280;33181;49.246;7.372;2022-08-02T01:37:21;99068.75;;;19.84;69.54
47430;BME280;33181;49.246;7.372;2022-08-02T01:39:54;99074.56;;;19.88;69.24
47430;BME280;33181;49.246;7.372;2022-08-02T01:42:23;99076.06;;;19.90;69.17
47430;BME280;33181;49.246;7.372;2022-08-02T01:44:52;99075.50;;;19.95;68.91
47430;BME280;33181;49.246;7.372;2022-08-02T01:47:27;99081.34;;;19.99;68.74
47430;BME280;33181;49.246;7.372;2022-08-02T01:49:57;99076.50;;;20.02;68.55
47430;BME280;33181;49.246;7.372;2022-08-02T01:52:28;99077.31;;;20.03;68.41
47430;BME280;33181;49.246;7.372;2022-08-02T01:55:12;99074.66;;;20.03;68.55
47430;BME280;33181;49.246;7.372;2022-08-02T01:57:48;99076.28;;;19.81;69.29
47430;BME280;33181;49.246;7.372;2022-08-02T02:00:16;99074.66;;;19.72;69.81
47430;BME280;33181;49.246;7.372;2022-08-02T02:02:45;99071.38;;;19.45;70.95
47430;BME280;33181;49.246;7.372;2022-08-02T02:05:18;99070.63;;;19.28;71.78
47430;BME280;33181;49.246;7.372;2022-08-02T02:07:52;99063.25;;;19.38;71.25
47430;BME280;33181;49.246;7.372;2022-08-02T02:10:28;99065.25;;;19.44;71.08
47430;BME280;33181;49.246;7.372;2022-08-02T02:13:00;99057.44;;;19.35;71.20
47430;BME280;33181;49.246;7.372;2022-08-02T02:15:27;99052.84;;;19.20;71.83
47430;BME280;33181;49.246;7.372;2022-08-02T02:17:56;99060.03;;;19.04;72.85
47430;BME280;33181;49.246;7.372;2022-08-02T02:20:23;99057.38;;;19.04;72.72
47430;BME280;33181;49.246;7.372;2022-08-02T02:22:49;99053.06;;;19.11;72.47
47430;BME280;33181;49.246;7.372;2022-08-02T02:25:19;99059.84;;;19.21;72.11
47430;BME280;33181;49.246;7.372;2022-08-02T02:28:03;99055.81;;;19.34;71.48
47430;BME280;33181;49.246;7.372;2022-08-02T02:30:32;99050.25;;;19.43;70.95
47430;BME280;33181;49.246;7.372;2022-08-02T02:33:01;99058.22;;;19.52;70.55
47430;BME280;33181;49.246;7.372;2022-08-02T02:35:34;99055.03;;;19.56;70.13
47430;BME280;33181;49.246;7.372;2022-08-02T02:38:07;99041.91;;;19.55;69.79
47430;BME280;33181;49.246;7.372;2022-08-02T02:40:35;99045.91;;;19.51;69.87
47430;BME280;33181;49.246;7.372;2022-08-02T02:43:03;99044.94;;;19.43;69.96
47430;BME280;33181;49.246;7.372;2022-08-02T02:45:29;99046.50;;;19.30;70.61
47430;BME280;33181;49.246;7.372;2022-08-02T02:47:57;99041.34;;;19.28;70.98
47430;BME280;33181;49.246;7.372;2022-08-02T02:50:25;99043.50;;;19.33;70.79
47430;BME280;33181;49.246;7.372;2022-08-02T02:52:51;99036.63;;;19.38;70.94
47430;BME280;33181;49.246;7.372;2022-08-02T02:55:18;99048.59;;;19.42;70.40
47430;BME280;33181;49.246;7.372;2022-08-02T02:57:44;99045.28;;;19.40;70.27
47430;BME280;33181;49.246;7.372;2022-08-02T03:00:12;99048.78;;;19.41;70.02
47430;BME280;33181;49.246;7.372;2022-08-02T03:02:41;99042.47;;;19.42;70.18
47430;BME280;33181;49.246;7.372;2022-08-02T03:05:09;99056.41;;;19.44;69.80
47430;BME280;33181;49.246;7.372;2022-08-02T03:07:36;99054.06;;;19.49;69.76
47430;BME280;33181;49.246;7.372;2022-08-02T03:10:04;99056.56;;;19.51;69.50
47430;BME280;33181;49.246;7.372;2022-08-02T03:12:32;99057.03;;;19.54;69.43
47430;BME280;33181;49.246;7.372;2022-08-02T03:15:05;99053.38;;;19.55;69.10
47430;BME280;33181;49.246;7.372;2022-08-02T03:17:45;99059.47;;;19.33;69.99
47430;BME280;33181;49.246;7.372;2022-08-02T03:20:20;99061.16;;;19.26;70.10
47430;BME280;33181;49.246;7.372;2022-08-02T03:22:47;99057.66;;;19.25;70.27
47430;BME280;33181;49.246;7.372;2022-08-02T03:25:14;99067.13;;;19.28;70.35
47430;BME280;33181;49.246;7.372;2022-08-02T03:27:41;99062.28;;;19.31;70.27
47430;BME280;33181;49.246;7.372;2022-08-02T03:30:09;99061.81;;;19.28;69.93
47430;BME280;33181;49.246;7.372;2022-08-02T03:32:37;99057.69;;;19.17;70.48
47430;BME280;33181;49.246;7.372;2022-08-02T03:35:06;99063.72;;;19.11;70.72
47430;BME280;33181;49.246;7.372;2022-08-02T03:37:35;99063.88;;;19.09;70.88
47430;BME280;33181;49.246;7.372;2022-08-02T03:40:03;99060.72;;;19.14;70.77
47430;BME280;33181;49.246;7.372;2022-08-02T03:42:31;99064.69;;;19.18;70.53
47430;BME280;33181;49.246;7.372;2022-08-02T03:44:59;99066.16;;;19.20;70.67
47430;BME280;33181;49.246;7.372;2022-08-02T03:47:27;99063.16;;;19.24;70.46
47430;BME280;33181;49.246;7.372;2022-08-02T03:49:53;99056.47;;;19.28;70.15
47430;BME280;33181;49.246;7.372;2022-08-02T03:52:20;99058.81;;;19.31;70.28
47430;BME280;33181;49.246;7.372;2022-08-02T03:54:46;99065.44;;;19.35;70.11
47430;BME280;33181;49.246;7.372;2022-08-02T03:57:12;99059.09;;;19.44;69.96
47430;BME280;33181;49.246;7.372;2022-08-02T03:59:44;99052.91;;;19.52;69.60
47430;BME280;33181;49.246;7.372;2022-08-02T04:02:11;99060.00;;;19.59;69.09
47430;BME280;33181;49.246;7.372;2022-08-02T04:04:38;99055.84;;;19.57;69.22
47430;BME280;33181;49.246;7.372;2022-08-02T04:07:04;99063.50;;;19.60;68.91
47430;BME280;33181;49.246;7.372;2022-08-02T04:09:29;99060.00;;;19.59;68.92
47430;BME280;33181;49.246;7.372;2022-08-02T04:11:55;99060.19;;;19.66;68.60
47430;BME280;33181;49.246;7.372;2022-08-02T04:14:21;99051.00;;;19.68;68.60
47430;BME280;33181;49.246;7.372;2022-08-02T04:16:56;99049.47;;;19.74;68.40
47430;BME280;33181;49.246;7.372;2022-08-02T04:19:50;99060.50;;;19.71;68.11
47430;BME280;33181;49.246;7.372;2022-08-02T04:22:25;99063.50;;;19.68;68.12
47430;BME280;33181;49.246;7.372;2022-08-02T04:25:00;99066.34;;;19.66;68.20
47430;BME280;33181;49.246;7.372;2022-08-02T04:27:28;99057.50;;;19.66;68.32
47430;BME280;33181;49.246;7.372;2022-08-02T04:29:56;99063.31;;;19.70;68.27
47430;BME280;33181;49.246;7.372;2022-08-02T04:32:22;99065.81;;;19.71;68.27
47430;BME280;33181;49.246;7.372;2022-08-02T04:34:48;99067.78;;;19.77;68.34
47430;BME280;33181;49.246;7.372;2022-08-02T04:37:14;99067.25;;;19.82;68.18
47430;BME280;33181;49.246;7.372;2022-08-02T04:39:41;99070.06;;;19.88;67.81
47430;BME280;33181;49.246;7.372;2022-08-02T04:42:07;99070.63;;;19.76;68.06
47430;BME280;33181;49.246;7.372;2022-08-02T04:44:33;99072.50;;;19.67;68.51
47430;BME280;33181;49.246;7.372;2022-08-02T04:47:00;99069.81;;;19.67;68.42
47430;BME280;33181;49.246;7.372;2022-08-02T04:49:28;99080.13;;;19.70;68.51
47430;BME280;33181;49.246;7.372;2022-08-02T04:51:54;99082.97;;;19.77;68.44
47430;BME280;33181;49.246;7.372;2022-08-02T04:54:20;99076.50;;;20.02;68.22
47430;BME280;33181;49.246;7.372;2022-08-02T04:56:46;99090.53;;;20.19;67.55
47430;BME280;33181;49.246;7.372;2022-08-02T04:59:12;99096.47;;;20.29;66.71
47430;BME280;33181;49.246;7.372;2022-08-02T05:01:38;99090.78;;;20.32;66.45
47430;BME280;33181;49.246;7.372;2022-08-02T05:04:04;99088.09;;;20.32;66.37
47430;BME280;33181;49.246;7.372;2022-08-02T05:06:31;99087.28;;;20.32;66.04
47430;BME280;33181;49.246;7.372;2022-08-02T05:08:57;99092.97;;;20.29;66.05
47430;BME280;33181;49.246;7.372;2022-08-02T05:11:23;99093.19;;;20.19;66.62
47430;BME280;33181;49.246;7.372;2022-08-02T05:13:49;99085.25;;;20.11;66.71
47430;BME280;33181;49.246;7.372;2022-08-02T05:16:15;99090.78;;;20.09;66.81
47430;BME280;33181;49.246;7.372;2022-08-02T05:18:41;99088.22;;;20.16;66.94
47430;BME280;33181;49.246;7.372;2022-08-02T05:21:07;99089.63;;;20.27;66.95
47430;BME280;33181;49.246;7.372;2022-08-02T05:23:32;99085.75;;;20.37;66.37
47430;BME280;33181;49.246;7.372;2022-08-02T05:25:58;99088.16;;;20.47;66.23
47430;BME280;33181;49.246;7.372;2022-08-02T05:28:24;99088.88;;;20.64;65.94
47430;BME280;33181;49.246;7.372;2022-08-02T05:30:50;99084.34;;;20.88;65.38
47430;BME280;33181;49.246;7.372;2022-08-02T05:33:16;99089.25;;;21.14;65.00
47430;BME280;33181;49.246;7.372;2022-08-02T05:35:42;99091.13;;;21.43;63.85
47430;BME280;33181;49.246;7.372;2022-08-02T05:38:08;99091.41;;;21.48;62.64
47430;BME280;33181;49.246;7.372;2022-08-02T05:40:34;99096.91;;;21.46;63.16
47430;BME280;33181;49.246;7.372;2022-08-02T05:42:59;99091.94;;;21.58;63.16
47430;BME280;33181;49.246;7.372;2022-08-02T05:45:25;99099.09;;;21.87;62.42
47430;BME280;33181;49.246;7.372;2022-08-02T05:47:51;99098.56;;;22.13;61.41
47430;BME280;33181;49.246;7.372;2022-08-02T05:50:19;99101.03;;;22.30;60.58
47430;BME280;33181;49.246;7.372;2022-08-02T05:55:18;99093.94;;;22.65;59.89
47430;BME280;33181;49.246;7.372;2022-08-02T06:00:39;99094.53;;;23.17;58.52
47430;BME280;33181;49.246;7.372;2022-08-02T06:06:12;99095.81;;;23.97;56.16
47430;BME280;33181;49.246;7.372;2022-08-02T06:09:00;99092.56;;;24.28;55.52
47430;BME280;33181;49.246;7.372;2022-08-02T06:11:50;99089.31;;;24.52;54.99
47430;BME280;33181;49.246;7.372;2022-08-02T06:14:17;99085.81;;;24.52;54.64
47430;BME280;33181;49.246;7.372;2022-08-02T06:16:44;99081.22;;;24.33;54.66
47430;BME280;33181;49.246;7.372;2022-08-02T06:19:13;99087.47;;;24.46;54.60
47430;BME280;33181;49.246;7.372;2022-08-02T06:21:42;99084.16;;;24.71;54.63
47430;BME280;33181;49.246;7.372;2022-08-02T06:24:09;99076.31;;;24.76;53.90
47430;BME280;33181;49.246;7.372;2022-08-02T06:26:37;99077.13;;;24.57;54.26
47430;BME280;33181;49.246;7.372;2022-08-02T06:29:03;99087.25;;;24.61;54.30
47430;BME280;33181;49.246;7.372;2022-08-02T06:31:29;99079.81;;;24.70;53.96
47430;BME280;33181;49.246;7.372;2022-08-02T06:33:55;99091.41;;;24.57;54.33
47430;BME280;33181;49.246;7.372;2022-08-02T06:36:49;99093.44;;;24.62;54.25
47430;BME280;33181;49.246;7.372;2022-08-02T06:39:30;99103.59;;;24.86;53.90
47430;BME280;33181;49.246;7.372;2022-08-02T06:42:00;99093.66;;;25.07;53.20
47430;BME280;33181;49.246;7.372;2022-08-02T06:44:28;99097.16;;;25.07;53.01
47430;BME280;33181;49.246;7.372;2022-08-02T06:46:54;99101.09;;;25.05;52.95
47430;BME280;33181;49.246;7.372;2022-08-02T06:49:20;99106.47;;;25.25;52.64
47430;BME280;33181;49.246;7.372;2022-08-02T06:51:45;99101.22;;;25.50;52.64
47430;BME280;33181;49.246;7.372;2022-08-02T06:54:11;99088.75;;;25.69;51.97
47430;BME280;33181;49.246;7.372;2022-08-02T06:56:37;99089.00;;;25.60;51.45
47430;BME280;33181;49.246;7.372;2022-08-02T06:59:03;99089.41;;;25.57;51.59
47430;BME280;33181;49.246;7.372;2022-08-02T07:01:28;99095.81;;;25.56;51.78
47430;BME280;33181;49.246;7.372;2022-08-02T07:03:54;99094.53;;;25.65;51.45
47430;BME280;33181;49.246;7.372;2022-08-02T07:06:20;99090.94;;;25.33;52.29
47430;BME280;33181;49.246;7.372;2022-08-02T07:08:46;99085.97;;;24.37;54.71
47430;BME280;33181;49.246;7.372;2022-08-02T07:11:11;99082.19;;;24.12;55.77
47430;BME280;33181;49.246;7.372;2022-08-02T07:13:37;99084.13;;;24.31;55.59
47430;BME280;33181;49.246;7.372;2022-08-02T07:16:03;99078.94;;;24.36;56.00
47430;BME280;33181;49.246;7.372;2022-08-02T07:18:30;99084.38;;;24.83;54.79
47430;BME280;33181;49.246;7.372;2022-08-02T07:20:55;99090.56;;;25.23;53.72
47430;BME280;33181;49.246;7.372;2022-08-02T07:23:21;99095.28;;;25.41;52.46
47430;BME280;33181;49.246;7.372;2022-08-02T07:25:47;99092.22;;;25.17;53.98
47430;BME280;33181;49.246;7.372;2022-08-02T07:28:13;99077.16;;;25.68;53.04
47430;BME280;33181;49.246;7.372;2022-08-02T07:30:42;99080.47;;;26.15;52.22
47430;BME280;33181;49.246;7.372;2022-08-02T07:33:09;99083.94;;;26.54;51.37
47430;BME280;33181;49.246;7.372;2022-08-02T07:35:35;99080.06;;;26.75;50.52
47430;BME280;33181;49.246;7.372;2022-08-02T07:38:01;99089.72;;;26.83;50.12
47430;BME280;33181;49.246;7.372;2022-08-02T07:40:27;99084.31;;;26.89;49.67
47430;BME280;33181;49.246;7.372;2022-08-02T07:42:55;99078.81;;;26.77;49.66
47430;BME280;33181;49.246;7.372;2022-08-02T07:45:21;99089.13;;;26.24;50.88
47430;BME280;33181;49.246;7.372;2022-08-02T07:47:48;99083.06;;;25.97;52.02
47430;BME280;33181;49.246;7.372;2022-08-02T07:50:16;99086.88;;;25.82;52.48
47430;BME280;33181;49.246;7.372;2022-08-02T07:52:43;99087.88;;;25.75;52.75
47430;BME280;33181;49.246;7.372;2022-08-02T07:55:12;99085.38;;;25.86;52.72
47430;BME280;33181;49.246;7.372;2022-08-02T07:57:39;99074.47;;;26.13;52.70
47430;BME280;33181;49.246;7.372;2022-08-02T08:00:07;99073.25;;;26.41;51.93
47430;BME280;33181;49.246;7.372;2022-08-02T08:02:34;99070.22;;;26.87;50.61
47430;BME280;33181;49.246;7.372;2022-08-02T08:05:00;99065.50;;;27.01;50.54
47430;BME280;33181;49.246;7.372;2022-08-02T08:07:27;99074.41;;;27.45;49.37
47430;BME280;33181;49.246;7.372;2022-08-02T08:09:53;99063.31;;;27.71;47.93
47430;BME280;33181;49.246;7.372;2022-08-02T08:12:19;99064.94;;;27.72;47.57
47430;BME280;33181;49.246;7.372;2022-08-02T08:14:44;99066.53;;;27.62;48.33
47430;BME280;33181;49.246;7.372;2022-08-02T08:17:10;99051.78;;;28.36;47.33
47430;BME280;33181;49.246;7.372;2022-08-02T08:19:36;99062.53;;;28.43;46.89
47430;BME280;33181;49.246;7.372;2022-08-02T08:22:02;99061.88;;;28.95;45.61
47430;BME280;33181;49.246;7.372;2022-08-02T08:24:28;99055.53;;;29.13;44.69
47430;BME280;33181;49.246;7.372;2022-08-02T08:26:55;99057.00;;;29.44;44.69
47430;BME280;33181;49.246;7.372;2022-08-02T08:29:22;99062.16;;;29.69;43.30
47430;BME280;33181;49.246;7.372;2022-08-02T08:31:48;99061.94;;;28.11;45.65
47430;BME280;33181;49.246;7.372;2022-08-02T08:34:15;99065.34;;;27.21;47.45
47430;BME280;33181;49.246;7.372;2022-08-02T08:36:41;99060.47;;;27.48;47.08
47430;BME280;33181;49.246;7.372;2022-08-02T08:39:07;99051.97;;;28.11;45.89
47430;BME280;33181;49.246;7.372;2022-08-02T08:41:35;99055.31;;;28.37;45.75
47430;BME280;33181;49.246;7.372;2022-08-02T08:44:02;99065.13;;;27.22;47.43
47430;BME280;33181;49.246;7.372;2022-08-02T08:46:31;99063.78;;;27.50;46.98
47430;BME280;33181;49.246;7.372;2022-08-02T08:49:08;99062.19;;;28.09;46.22
47430;BME280;33181;49.246;7.372;2022-08-02T08:51:41;99062.34;;;28.26;44.67
47430;BME280;33181;49.246;7.372;2022-08-02T08:54:14;99067.94;;;28.43;44.31
47430;BME280;33181;49.246;7.372;2022-08-02T08:56:42;99062.00;;;28.76;44.39
47430;BME280;33181;49.246;7.372;2022-08-02T08:59:08;99069.19;;;29.18;43.28
47430;BME280;33181;49.246;7.372;2022-08-02T09:01:34;99071.69;;;29.60;42.18
47430;BME280;33181;49.246;7.372;2022-08-02T09:04:00;99072.63;;;29.53;42.09
47430;BME280;33181;49.246;7.372;2022-08-02T09:06:26;99076.78;;;29.44;42.71
47430;BME280;33181;49.246;7.372;2022-08-02T09:08:52;99074.19;;;29.61;42.35
47430;BME280;33181;49.246;7.372;2022-08-02T09:11:25;99065.59;;;29.93;41.51
47430;BME280;33181;49.246;7.372;2022-08-02T09:13:59;99069.00;;;30.17;40.82
47430;BME280;33181;49.246;7.372;2022-08-02T09:18:57;99073.47;;;29.54;42.01
47430;BME280;33181;49.246;7.372;2022-08-02T09:21:33;99071.63;;;30.23;40.96
47430;BME280;33181;49.246;7.372;2022-08-02T09:23:58;99062.28;;;30.82;39.84
47430;BME280;33181;49.246;7.372;2022-08-02T09:26:24;99067.50;;;31.05;39.96
47430;BME280;33181;49.246;7.372;2022-08-02T09:28:58;99064.19;;;31.37;39.47
47430;BME280;33181;49.246;7.372;2022-08-02T09:31:24;99062.41;;;31.70;38.17
47430;BME280;33181;49.246;7.372;2022-08-02T09:33:56;99060.50;;;31.70;38.19
47430;BME280;33181;49.246;7.372;2022-08-02T09:36:23;99063.28;;;31.97;37.98
47430;BME280;33181;49.246;7.372;2022-08-02T09:38:59;99059.16;;;32.49;37.28
47430;BME280;33181;49.246;7.372;2022-08-02T09:41:29;99062.03;;;33.02;36.23
47430;BME280;33181;49.246;7.372;2022-08-02T09:43:57;99059.50;;;32.95;35.54
47430;BME280;33181;49.246;7.372;2022-08-02T09:46:28;99059.34;;;33.12;35.19
47430;BME280;33181;49.246;7.372;2022-08-02T09:49:13;99052.47;;;32.99;35.95
47430;BME280;33181;49.246;7.372;2022-08-02T09:51:49;99052.28;;;33.11;35.91
47430;BME280;33181;49.246;7.372;2022-08-02T09:54:22;99052.09;;;32.48;35.29
47430;BME280;33181;49.246;7.372;2022-08-02T09:56:53;99055.56;;;30.84;37.84
47430;BME280;33181;49.246;7.372;2022-08-02T09:59:20;99051.81;;;31.07;37.96
47430;BME280;33181;49.246;7.372;2022-08-02T10:01:48;99047.78;;;31.10;37.66
47430;BME280;33181;49.246;7.372;2022-08-02T10:04:14;99044.97;;;31.05;37.79
47430;BME280;33181;49.246;7.372;2022-08-02T10:06:43;99042.63;;;31.52;37.20
47430;BME280;33181;49.246;7.372;2022-08-02T10:09:11;99040.72;;;30.75;37.77
47430;BME280;33181;49.246;7.372;2022-08-02T10:11:38;99051.91;;;30.45;38.50
47430;BME280;33181;49.246;7.372;2022-08-02T10:14:06;99045.34;;;30.24;38.62
47430;BME280;33181;49.246;7.372;2022-08-02T10:16:35;99039.50;;;30.83;37.74
47430;BME280;33181;49.246;7.372;2022-08-02T10:19:01;99035.91;;;31.16;37.24
47430;BME280;33181;49.246;7.372;2022-08-02T10:21:57;99044.72;;;31.45;35.91
47430;BME280;33181;49.246;7.372;2022-08-02T10:24:27;99046.31;;;31.63;35.79
47430;BME280;33181;49.246;7.372;2022-08-02T10:26:54;99039.84;;;31.91;35.49
47430;BME280;33181;49.246;7.372;2022-08-02T10:29:30;99035.25;;;31.97;35.61
47430;BME280;33181;49.246;7.372;2022-08-02T10:32:22;99028.53;;;32.31;35.62
47430;BME280;33181;49.246;7.372;2022-08-02T10:35:10;99025.84;;;32.69;35.44
47430;BME280;33181;49.246;7.372;2022-08-02T10:37:38;99021.19;;;32.64;34.83
47430;BME280;33181;49.246;7.372;2022-08-02T10:40:06;99019.88;;;32.72;34.92
47430;BME280;33181;49.246;7.372;2022-08-02T10:42:50;99015.69;;;32.96;34.21
47430;BME280;33181;49.246;7.372;2022-08-02T10:45:19;99016.63;;;33.17;32.54
47430;BME280;33181;49.246;7.372;2022-08-02T10:48:09;99014.81;;;33.33;31.89
47430;BME280;33181;49.246;7.372;2022-08-02T10:53:33;99003.19;;;33.53;30.60
47430;BME280;33181;49.246;7.372;2022-08-02T10:56:04;98997.16;;;33.51;31.24
47430;BME280;33181;49.246;7.372;2022-08-02T10:58:32;99004.56;;;33.03;32.01
47430;BME280;33181;49.246;7.372;2022-08-02T11:01:30;98994.66;;;33.44;31.59
47430;BME280;33181;49.246;7.372;2022-08-02T11:04:01;98993.72;;;33.81;31.25
47430;BME280;33181;49.246;7.372;2022-08-02T11:06:26;98990.19;;;34.01;30.32
47430;BME280;33181;49.246;7.372;2022-08-02T11:09:29;98980.38;;;34.51;30.65
47430;BME280;33181;49.246;7.372;2022-08-02T11:12:14;98982.56;;;34.65;29.39
47430;BME280;33181;49.246;7.372;2022-08-02T11:14:42;98987.50;;;34.17;29.96
47430;BME280;33181;49.246;7.372;2022-08-02T11:17:13;98985.03;;;34.35;30.00
47430;BME280;33181;49.246;7.372;2022-08-02T11:22:38;98982.28;;;34.46;30.17
47430;BME280;33181;49.246;7.372;2022-08-02T11:27:55;98987.78;;;34.15;29.36
47430;BME280;33181;49.246;7.372;2022-08-02T11:30:22;98983.41;;;34.29;29.68
47430;BME280;33181;49.246;7.372;2022-08-02T11:32:49;98982.13;;;33.33;30.42
47430;BME280;33181;49.246;7.372;2022-08-02T11:35:15;98979.03;;;32.67;30.83
47430;BME280;33181;49.246;7.372;2022-08-02T11:37:43;98977.72;;;33.17;30.60
47430;BME280;33181;49.246;7.372;2022-08-02T11:40:13;98983.59;;;33.61;30.16
47430;BME280;33181;49.246;7.372;2022-08-02T11:42:45;98981.44;;;33.79;29.94
47430;BME280;33181;49.246;7.372;2022-08-02T11:45:16;98977.66;;;34.00;29.80
47430;BME280;33181;49.246;7.372;2022-08-02T11:47:50;98978.78;;;34.40;29.53
47430;BME280;33181;49.246;7.372;2022-08-02T11:50:17;98984.75;;;34.52;28.82
47430;BME280;33181;49.246;7.372;2022-08-02T11:52:45;98982.59;;;34.03;29.39
47430;BME280;33181;49.246;7.372;2022-08-02T11:55:11;98978.47;;;33.90;29.72
47430;BME280;33181;49.246;7.372;2022-08-02T11:57:39;98980.91;;;33.97;30.00
47430;BME280;33181;49.246;7.372;2022-08-02T12:00:17;98979.53;;;33.84;30.35
47430;BME280;33181;49.246;7.372;2022-08-02T12:02:46;98969.19;;;33.97;30.27
47430;BME280;33181;49.246;7.372;2022-08-02T12:05:21;98975.78;;;34.21;30.37
47430;BME280;33181;49.246;7.372;2022-08-02T12:07:51;98971.38;;;34.46;29.23
47430;BME280;33181;49.246;7.372;2022-08-02T12:10:21;98970.03;;;34.23;29.61
47430;BME280;33181;49.246;7.372;2022-08-02T12:12:52;98970.00;;;33.87;29.48
47430;BME280;33181;49.246;7.372;2022-08-02T12:18:15;98969.38;;;33.54;29.74
47430;BME280;33181;49.246;7.372;2022-08-02T12:21:00;98962.91;;;33.86;29.33
47430;BME280;33181;49.246;7.372;2022-08-02T12:23:27;98962.97;;;34.11;29.17
47430;BME280;33181;49.246;7.372;2022-08-02T12:26:08;98965.50;;;33.30;29.85
47430;BME280;33181;49.246;7.372;2022-08-02T12:28:38;98959.72;;;32.31;31.47
47430;BME280;33181;49.246;7.372;2022-08-02T12:31:07;98957.94;;;32.47;31.54
47430;BME280;33181;49.246;7.372;2022-08-02T12:33:51;98961.09;;;33.18;30.69
47430;BME280;33181;49.246;7.372;2022-08-02T12:36:23;98954.34;;;33.36;30.40
47430;BME280;33181;49.246;7.372;2022-08-02T12:38:59;98954.69;;;33.60;30.21
47430;BME280;33181;49.246;7.372;2022-08-02T12:41:27;98953.59;;;33.56;29.81
47430;BME280;33181;49.246;7.372;2022-08-02T12:43:55;98958.31;;;33.08;30.49
47430;BME280;33181;49.246;7.372;2022-08-02T12:46:23;98957.25;;;33.14;30.80
47430;BME280;33181;49.246;7.372;2022-08-02T12:48:49;98937.78;;;33.63;30.42
47430;BME280;33181;49.246;7.372;2022-08-02T12:51:31;98940.50;;;33.53;30.85
47430;BME280;33181;49.246;7.372;2022-08-02T12:54:21;98931.03;;;34.07;30.11
47430;BME280;33181;49.246;7.372;2022-08-02T12:56:49;98935.09;;;33.94;30.45
47430;BME280;33181;49.246;7.372;2022-08-02T12:59:16;98923.69;;;34.12;29.94
47430;BME280;33181;49.246;7.372;2022-08-02T13:02:06;98922.53;;;34.44;29.43
47430;BME280;33181;49.246;7.372;2022-08-02T13:04:33;98917.91;;;34.40;28.92
47430;BME280;33181;49.246;7.372;2022-08-02T13:06:59;98920.91;;;34.33;28.63
47430;BME280;33181;49.246;7.372;2022-08-02T13:09:26;98912.75;;;34.43;29.43
47430;BME280;33181;49.246;7.372;2022-08-02T13:11:51;98907.28;;;34.53;29.12
47430;BME280;33181;49.246;7.372;2022-08-02T13:14:17;98906.19;;;34.54;29.00
47430;BME280;33181;49.246;7.372;2022-08-02T13:16:45;98904.56;;;34.53;28.87
47430;BME280;33181;49.246;7.372;2022-08-02T13:19:11;98901.53;;;34.45;29.28
47430;BME280;33181;49.246;7.372;2022-08-02T13:21:40;98903.41;;;34.70;29.13
47430;BME280;33181;49.246;7.372;2022-08-02T13:24:06;98906.13;;;34.65;28.79
47430;BME280;33181;49.246;7.372;2022-08-02T13:26:32;98912.44;;;34.55;28.43
47430;BME280;33181;49.246;7.372;2022-08-02T13:28:58;98911.09;;;34.47;28.08
47430;BME280;33181;49.246;7.372;2022-08-02T13:31:24;98912.44;;;34.40;27.87
47430;BME280;33181;49.246;7.372;2022-08-02T13:33:50;98914.94;;;34.31;28.11
47430;BME280;33181;49.246;7.372;2022-08-02T13:36:15;98916.03;;;34.25;28.40
47430;BME280;33181;49.246;7.372;2022-08-02T13:38:41;98906.75;;;34.26;28.53
47430;BME280;33181;49.246;7.372;2022-08-02T13:41:07;98918.22;;;34.07;28.83
47430;BME280;33181;49.246;7.372;2022-08-02T13:43:33;98914.41;;;34.03;28.62